MSC Magnifica — 3FLO4 — position and weather

sailwx.info

Track history (hours):
 
Tides and Currents Weather Stations Pressure Air Temp Water Temp Dewpoint Dewpoint Depression Visibility Wind Speed Wind Dir Waves Ship Positions

MSC Magnifica

Last reported at 2019-Jul-14 23:27 UTC. Time now 2019-Jul-16 11:03 UTC.
Position N 44°12' E 013°56'.

Length 294 m; draft 7.8 m.

Type: Passenger vessel. MMSI: 352594000.

Date/timePositionNaut miles runAvg speedWind from/ knotsBaromVisibWave heightAir tempDewpointWater temp
2019-Jul-14 23:27N 44°12' E 013°56'1021.2
2019-Jul-14 22:59N 44°20' E 013°48'1021.4
2019-Jul-14 22:30N 44°29' E 013°40'1021.0
2019-Jul-14 22:00N 44°37' E 013°32'1121.2
2019-Jul-14 21:30N 44°46' E 013°24'1121.2
2019-Jul-14 21:00N 44°55' E 013°16'1121.1
2019-Jul-14 20:30N 45°02' E 013°05'1020.8
2019-Jul-14 20:00N 45°09' E 012°54'1020.8
2019-Jul-14 19:30N 45°16' E 012°43'1019.2
2019-Jul-14 19:00N 45°22' E 012°32'714.1
2019-Jul-14 18:31N 45°26' E 012°24'2 4.5
2019-Jul-14 18:01N 45°26' E 012°21'1 2.8
2019-Jul-14 17:31N 45°26' E 012°19'0 0.0
2019-Jul-14 16:58N 45°26' E 012°19'0 0.0
2019-Jul-14 16:30N 45°26' E 012°19'0 0.0
2019-Jul-14 16:00N 45°26' E 012°19'0 0.0
2019-Jul-14 15:30N 45°26' E 012°19'0 0.0
2019-Jul-14 15:00N 45°26' E 012°19'0 0.0
2019-Jul-14 14:29N 45°26' E 012°19'0 0.0
2019-Jul-14 13:59N 45°26' E 012°19'0 0.0
2019-Jul-14 13:29N 45°26' E 012°19'0 0.0
2019-Jul-14 12:59N 45°26' E 012°19'0 0.0
2019-Jul-14 12:25N 45°26' E 012°19'0 0.0
2019-Jul-14 11:58N 45°26' E 012°19'0 0.0
2019-Jul-14 11:28N 45°26' E 012°19'0 0.0
2019-Jul-14 10:58N 45°26' E 012°19'0 0.0
2019-Jul-14 10:28N 45°26' E 012°19'0 0.0
2019-Jul-14 09:58N 45°26' E 012°19'0 0.0
2019-Jul-14 09:28N 45°26' E 012°19'0 0.0
2019-Jul-14 08:58N 45°26' E 012°19'0 0.0
2019-Jul-14 08:28N 45°26' E 012°19'0 0.0
2019-Jul-14 07:58N 45°26' E 012°19'0 0.0
2019-Jul-14 07:25N 45°26' E 012°19'0 0.0
2019-Jul-14 06:55N 45°26' E 012°19'0 0.0
2019-Jul-14 06:30N 45°26' E 012°19'1 2.7
2019-Jul-14 06:00N 45°26' E 012°20'2 4.2
2019-Jul-14 05:31N 45°26' E 012°23'3 6.6
2019-Jul-14 05:01N 45°25' E 012°27'714.3
2019-Jul-14 04:30N 45°21' E 012°36'1019.7
2019-Jul-14 04:00N 45°14' E 012°46'1121.0
2019-Jul-14 03:30N 45°08' E 012°58'1121.4
2019-Jul-14 03:00N 45°02' E 013°11'1121.5
2019-Jul-14 02:30N 44°55' E 013°22'1121.5
2019-Jul-14 02:00N 44°46' E 013°30'1121.5
2019-Jul-14 01:30N 44°37' E 013°39'1121.3
2019-Jul-14 01:00N 44°28' E 013°48'1121.4
2019-Jul-14 00:30N 44°19' E 013°56'  
2019-Jul-11 15:24N 37°24' E 023°37'819.6
2019-Jul-11 15:00N 37°32' E 023°37'1020.1
2019-Jul-11 14:31N 37°42' E 023°36'1020.1
2019-Jul-11 14:01N 37°52' E 023°36'4 8.9
2019-Jul-11 13:30N 37°56' E 023°38'0 0.3
2019-Jul-11 13:00N 37°56' E 023°38'0 0.0
2019-Jul-11 12:30N 37°56' E 023°38'0 0.0
2019-Jul-11 12:00N 37°56' E 023°38'0 0.0
2019-Jul-11 11:30N 37°56' E 023°38'0 0.0
2019-Jul-11 11:00N 37°56' E 023°38'0 0.0
2019-Jul-11 10:30N 37°56' E 023°38'0 0.0
2019-Jul-11 10:00N 37°56' E 023°38'0 0.0
2019-Jul-11 09:30N 37°56' E 023°38'0 0.0
2019-Jul-11 09:00N 37°56' E 023°38'0 0.0
2019-Jul-11 08:30N 37°56' E 023°38'0 0.0
2019-Jul-11 07:54N 37°56' E 023°38'0 0.0
2019-Jul-11 07:30N 37°56' E 023°38'0 0.0
2019-Jul-11 07:00N 37°56' E 023°38'0 0.0
2019-Jul-11 06:30N 37°56' E 023°38'0 0.0
2019-Jul-11 06:00N 37°56' E 023°38'0 0.0
2019-Jul-11 05:30N 37°56' E 023°38'0 0.0
2019-Jul-11 05:00N 37°56' E 023°38'0 0.0
2019-Jul-11 04:30N 37°56' E 023°38'0 0.0
2019-Jul-11 03:59N 37°56' E 023°38'1 2.4
2019-Jul-11 03:30N 37°56' E 023°36'2 3.5
2019-Jul-11 03:00N 37°54' E 023°35'3 5.6
2019-Jul-11 02:30N 37°52' E 023°37'3 6.9
2019-Jul-11 02:00N 37°49' E 023°40'4 8.6
2019-Jul-11 01:30N 37°45' E 023°42'5 9.3
2019-Jul-11 01:00N 37°41' E 023°45'5 9.9
2019-Jul-11 00:30N 37°37' E 023°49'5 9.8
2019-Jul-11 00:00N 37°34' E 023°53'5 9.5
2019-Jul-10 23:30N 37°30' E 023°58'510.1
2019-Jul-10 23:00N 37°27' E 024°02'510.1
2019-Jul-10 22:30N 37°22' E 024°05'510.1
2019-Jul-10 21:59N 37°18' E 024°09'510.1
2019-Jul-10 21:30N 37°14' E 024°13'510.1
2019-Jul-10 21:00N 37°10' E 024°16'510.4
2019-Jul-10 20:30N 37°06' E 024°20'611.9
2019-Jul-10 19:59N 37°01' E 024°25'612.8
2019-Jul-10 19:30N 36°56' E 024°29'36 2.0
2019-Jul-10 01:02N 36°22' E 024°14'120.4
2019-Jul-10 00:59N 36°22' E 024°13'1020.2
2019-Jul-10 00:30N 36°22' E 024°01'1020.1
2019-Jul-10 00:00N 36°21' E 023°48'1020.0
2019-Jul-09 23:30N 36°21' E 023°36'1019.8
2019-Jul-09 22:59N 36°22' E 023°23'919.7
2019-Jul-09 22:30N 36°22' E 023°11'62313.9
2019-Jul-08 01:46N 44°04' E 014°04'1121.0
2019-Jul-08 01:16N 44°12' E 013°56'921.1
2019-Jul-08 00:49N 44°20' E 013°48'721.0
2019-Jul-08 00:28N 44°26' E 013°42'1021.0
2019-Jul-08 00:00N 44°34' E 013°35'1020.9
2019-Jul-07 23:30N 44°43' E 013°27'1020.8
2019-Jul-07 23:00N 44°52' E 013°19'1020.3
2019-Jul-07 22:30N 44°59' E 013°10'1020.4
2019-Jul-07 22:00N 45°06' E 012°59'1020.5
2019-Jul-07 21:31N 45°13' E 012°48'1020.3
2019-Jul-07 21:00N 45°19' E 012°37'917.5
2019-Jul-07 20:30N 45°25' E 012°27'3 6.9
2019-Jul-07 20:00N 45°25' E 012°22'2 4.9
2019-Jul-07 19:30N 45°26' E 012°19'0 0.5
2019-Jul-07 18:59N 45°26' E 012°19'0 0.0
2019-Jul-07 18:29N 45°26' E 012°19'0 0.0
2019-Jul-07 17:59N 45°26' E 012°19'0 0.0
2019-Jul-07 17:29N 45°26' E 012°19'0 0.0
2019-Jul-07 16:59N 45°26' E 012°19'0 0.0
2019-Jul-07 16:29N 45°26' E 012°19'0 0.0
2019-Jul-07 15:59N 45°26' E 012°19'0 0.0
2019-Jul-07 15:29N 45°26' E 012°19'0 0.0
2019-Jul-07 14:59N 45°26' E 012°19'0 0.0
2019-Jul-07 14:29N 45°26' E 012°19'0 0.0
2019-Jul-07 13:59N 45°26' E 012°19'0 0.0
2019-Jul-07 13:29N 45°26' E 012°19'0 0.0
2019-Jul-07 12:59N 45°26' E 012°19'0 0.0
2019-Jul-07 12:29N 45°26' E 012°19'0 0.0
2019-Jul-07 11:59N 45°26' E 012°19'0 0.0
2019-Jul-07 11:26N 45°26' E 012°19'0 0.0
2019-Jul-07 10:59N 45°26' E 012°19'0 0.0
2019-Jul-07 10:29N 45°26' E 012°19'0 0.0
2019-Jul-07 09:59N 45°26' E 012°19'0 0.0
2019-Jul-07 09:29N 45°26' E 012°19'0 0.0
2019-Jul-07 08:59N 45°26' E 012°19'0 0.0
2019-Jul-07 08:29N 45°26' E 012°19'0 0.0
2019-Jul-07 07:58N 45°26' E 012°19'0 0.5
2019-Jul-07 07:30N 45°26' E 012°18'2 4.6
2019-Jul-07 07:01N 45°25' E 012°22'3 5.5
2019-Jul-07 06:30N 45°25' E 012°26'4 8.7
2019-Jul-07 06:01N 45°23' E 012°31'714.4
2019-Jul-07 05:30N 45°19' E 012°39'816.9
2019-Jul-07 05:01N 45°13' E 012°48'917.4
2019-Jul-07 04:30N 45°08' E 012°58'917.6
2019-Jul-07 04:01N 45°03' E 013°08'917.6
2019-Jul-07 03:31N 44°58' E 013°18'918.9
2019-Jul-07 03:01N 44°50' E 013°26'2019.7
2019-Jul-07 02:00N 44°34' E 013°42'1019.9
2019-Jul-07 01:30N 44°26' E 013°50'1020.0
2019-Jul-07 01:01N 44°17' E 013°58'1619.6
2019-Jul-07 00:11N 44°04' E 014°11'419.7
2019-Jul-07 00:00N 44°01' E 014°14'1919.9
2019-Jul-06 23:02N 43°47' E 014°32'120.1
2019-Jul-06 23:00N 43°46' E 014°32'1019.8
2019-Jul-06 22:30N 43°39' E 014°41'3320.0
2019-Jul-06 20:53N 43°15' E 015°10'  
Track history (hours):
 
Tides and Currents Weather Stations Pressure Air Temp Water Temp Dewpoint Dewpoint Depression Visibility Wind Speed Wind Dir Waves Ship Positions

MSC Magnifica

Last reported at 2019-Jul-14 23:27 UTC. Time now 2019-Jul-16 11:03 UTC.
Position N 44°12' E 013°56'.

Length 294 m; draft 7.8 m.

Type: Passenger vessel. MMSI: 352594000.

Date/timePositionNaut miles runAvg speedWind from/ knotsBaromVisibWave heightAir tempDewpointWater temp
2019-Jul-14 23:27N 44°12' E 013°56'1021.2
2019-Jul-14 22:59N 44°20' E 013°48'1021.4
2019-Jul-14 22:30N 44°29' E 013°40'1021.0
2019-Jul-14 22:00N 44°37' E 013°32'1121.2
2019-Jul-14 21:30N 44°46' E 013°24'1121.2
2019-Jul-14 21:00N 44°55' E 013°16'1121.1
2019-Jul-14 20:30N 45°02' E 013°05'1020.8
2019-Jul-14 20:00N 45°09' E 012°54'1020.8
2019-Jul-14 19:30N 45°16' E 012°43'1019.2
2019-Jul-14 19:00N 45°22' E 012°32'714.1
2019-Jul-14 18:31N 45°26' E 012°24'2 4.5
2019-Jul-14 18:01N 45°26' E 012°21'1 2.8
2019-Jul-14 17:31N 45°26' E 012°19'0 0.0
2019-Jul-14 16:58N 45°26' E 012°19'0 0.0
2019-Jul-14 16:30N 45°26' E 012°19'0 0.0
2019-Jul-14 16:00N 45°26' E 012°19'0 0.0
2019-Jul-14 15:30N 45°26' E 012°19'0 0.0
2019-Jul-14 15:00N 45°26' E 012°19'0 0.0
2019-Jul-14 14:29N 45°26' E 012°19'0 0.0
2019-Jul-14 13:59N 45°26' E 012°19'0 0.0
2019-Jul-14 13:29N 45°26' E 012°19'0 0.0
2019-Jul-14 12:59N 45°26' E 012°19'0 0.0
2019-Jul-14 12:25N 45°26' E 012°19'0 0.0
2019-Jul-14 11:58N 45°26' E 012°19'0 0.0
2019-Jul-14 11:28N 45°26' E 012°19'0 0.0
2019-Jul-14 10:58N 45°26' E 012°19'0 0.0
2019-Jul-14 10:28N 45°26' E 012°19'0 0.0
2019-Jul-14 09:58N 45°26' E 012°19'0 0.0
2019-Jul-14 09:28N 45°26' E 012°19'0 0.0
2019-Jul-14 08:58N 45°26' E 012°19'0 0.0
2019-Jul-14 08:28N 45°26' E 012°19'0 0.0
2019-Jul-14 07:58N 45°26' E 012°19'0 0.0
2019-Jul-14 07:25N 45°26' E 012°19'0 0.0
2019-Jul-14 06:55N 45°26' E 012°19'0 0.0
2019-Jul-14 06:30N 45°26' E 012°19'1 2.7
2019-Jul-14 06:00N 45°26' E 012°20'2 4.2
2019-Jul-14 05:31N 45°26' E 012°23'3 6.6
2019-Jul-14 05:01N 45°25' E 012°27'714.3
2019-Jul-14 04:30N 45°21' E 012°36'1019.7
2019-Jul-14 04:00N 45°14' E 012°46'1121.0
2019-Jul-14 03:30N 45°08' E 012°58'1121.4
2019-Jul-14 03:00N 45°02' E 013°11'1121.5
2019-Jul-14 02:30N 44°55' E 013°22'1121.5
2019-Jul-14 02:00N 44°46' E 013°30'1121.5
2019-Jul-14 01:30N 44°37' E 013°39'1121.3
2019-Jul-14 01:00N 44°28' E 013°48'1121.4
2019-Jul-14 00:30N 44°19' E 013°56'  
2019-Jul-11 15:24N 37°24' E 023°37'819.6
2019-Jul-11 15:00N 37°32' E 023°37'1020.1
2019-Jul-11 14:31N 37°42' E 023°36'1020.1
2019-Jul-11 14:01N 37°52' E 023°36'4 8.9
2019-Jul-11 13:30N 37°56' E 023°38'0 0.3
2019-Jul-11 13:00N 37°56' E 023°38'0 0.0
2019-Jul-11 12:30N 37°56' E 023°38'0 0.0
2019-Jul-11 12:00N 37°56' E 023°38'0 0.0
2019-Jul-11 11:30N 37°56' E 023°38'0 0.0
2019-Jul-11 11:00N 37°56' E 023°38'0 0.0
2019-Jul-11 10:30N 37°56' E 023°38'0 0.0
2019-Jul-11 10:00N 37°56' E 023°38'0 0.0
2019-Jul-11 09:30N 37°56' E 023°38'0 0.0
2019-Jul-11 09:00N 37°56' E 023°38'0 0.0
2019-Jul-11 08:30N 37°56' E 023°38'0 0.0
2019-Jul-11 07:54N 37°56' E 023°38'0 0.0
2019-Jul-11 07:30N 37°56' E 023°38'0 0.0
2019-Jul-11 07:00N 37°56' E 023°38'0 0.0
2019-Jul-11 06:30N 37°56' E 023°38'0 0.0
2019-Jul-11 06:00N 37°56' E 023°38'0 0.0
2019-Jul-11 05:30N 37°56' E 023°38'0 0.0
2019-Jul-11 05:00N 37°56' E 023°38'0 0.0
2019-Jul-11 04:30N 37°56' E 023°38'0 0.0
2019-Jul-11 03:59N 37°56' E 023°38'1 2.4
2019-Jul-11 03:30N 37°56' E 023°36'2 3.5
2019-Jul-11 03:00N 37°54' E 023°35'3 5.6
2019-Jul-11 02:30N 37°52' E 023°37'3 6.9
2019-Jul-11 02:00N 37°49' E 023°40'4 8.6
2019-Jul-11 01:30N 37°45' E 023°42'5 9.3
2019-Jul-11 01:00N 37°41' E 023°45'5 9.9
2019-Jul-11 00:30N 37°37' E 023°49'5 9.8
2019-Jul-11 00:00N 37°34' E 023°53'5 9.5
2019-Jul-10 23:30N 37°30' E 023°58'510.1
2019-Jul-10 23:00N 37°27' E 024°02'510.1
2019-Jul-10 22:30N 37°22' E 024°05'510.1
2019-Jul-10 21:59N 37°18' E 024°09'510.1
2019-Jul-10 21:30N 37°14' E 024°13'510.1
2019-Jul-10 21:00N 37°10' E 024°16'510.4
2019-Jul-10 20:30N 37°06' E 024°20'611.9
2019-Jul-10 19:59N 37°01' E 024°25'612.8
2019-Jul-10 19:30N 36°56' E 024°29'36 2.0
2019-Jul-10 01:02N 36°22' E 024°14'120.4
2019-Jul-10 00:59N 36°22' E 024°13'1020.2
2019-Jul-10 00:30N 36°22' E 024°01'1020.1
2019-Jul-10 00:00N 36°21' E 023°48'1020.0
2019-Jul-09 23:30N 36°21' E 023°36'1019.8
2019-Jul-09 22:59N 36°22' E 023°23'919.7
2019-Jul-09 22:30N 36°22' E 023°11'62313.9
2019-Jul-08 01:46N 44°04' E 014°04'1121.0
2019-Jul-08 01:16N 44°12' E 013°56'921.1
2019-Jul-08 00:49N 44°20' E 013°48'721.0
2019-Jul-08 00:28N 44°26' E 013°42'1021.0
2019-Jul-08 00:00N 44°34' E 013°35'1020.9
2019-Jul-07 23:30N 44°43' E 013°27'1020.8
2019-Jul-07 23:00N 44°52' E 013°19'1020.3
2019-Jul-07 22:30N 44°59' E 013°10'1020.4
2019-Jul-07 22:00N 45°06' E 012°59'1020.5
2019-Jul-07 21:31N 45°13' E 012°48'1020.3
2019-Jul-07 21:00N 45°19' E 012°37'917.5
2019-Jul-07 20:30N 45°25' E 012°27'3 6.9
2019-Jul-07 20:00N 45°25' E 012°22'2 4.9
2019-Jul-07 19:30N 45°26' E 012°19'0 0.5
2019-Jul-07 18:59N 45°26' E 012°19'0 0.0
2019-Jul-07 18:29N 45°26' E 012°19'0 0.0
2019-Jul-07 17:59N 45°26' E 012°19'0 0.0
2019-Jul-07 17:29N 45°26' E 012°19'0 0.0
2019-Jul-07 16:59N 45°26' E 012°19'0 0.0
2019-Jul-07 16:29N 45°26' E 012°19'0 0.0
2019-Jul-07 15:59N 45°26' E 012°19'0 0.0
2019-Jul-07 15:29N 45°26' E 012°19'0 0.0
2019-Jul-07 14:59N 45°26' E 012°19'0 0.0
2019-Jul-07 14:29N 45°26' E 012°19'0 0.0
2019-Jul-07 13:59N 45°26' E 012°19'0 0.0
2019-Jul-07 13:29N 45°26' E 012°19'0 0.0
2019-Jul-07 12:59N 45°26' E 012°19'0 0.0
2019-Jul-07 12:29N 45°26' E 012°19'0 0.0
2019-Jul-07 11:59N 45°26' E 012°19'0 0.0
2019-Jul-07 11:26N 45°26' E 012°19'0 0.0
2019-Jul-07 10:59N 45°26' E 012°19'0 0.0
2019-Jul-07 10:29N 45°26' E 012°19'0 0.0
2019-Jul-07 09:59N 45°26' E 012°19'0 0.0
2019-Jul-07 09:29N 45°26' E 012°19'0 0.0
2019-Jul-07 08:59N 45°26' E 012°19'0 0.0
2019-Jul-07 08:29N 45°26' E 012°19'0 0.0
2019-Jul-07 07:58N 45°26' E 012°19'0 0.5
2019-Jul-07 07:30N 45°26' E 012°18'2 4.6
2019-Jul-07 07:01N 45°25' E 012°22'3 5.5
2019-Jul-07 06:30N 45°25' E 012°26'4 8.7
2019-Jul-07 06:01N 45°23' E 012°31'714.4
2019-Jul-07 05:30N 45°19' E 012°39'816.9
2019-Jul-07 05:01N 45°13' E 012°48'917.4
2019-Jul-07 04:30N 45°08' E 012°58'917.6
2019-Jul-07 04:01N 45°03' E 013°08'917.6
2019-Jul-07 03:31N 44°58' E 013°18'918.9
2019-Jul-07 03:01N 44°50' E 013°26'2019.7
2019-Jul-07 02:00N 44°34' E 013°42'1019.9
2019-Jul-07 01:30N 44°26' E 013°50'1020.0
2019-Jul-07 01:01N 44°17' E 013°58'1619.6
2019-Jul-07 00:11N 44°04' E 014°11'419.7
2019-Jul-07 00:00N 44°01' E 014°14'1919.9
2019-Jul-06 23:02N 43°47' E 014°32'120.1
2019-Jul-06 23:00N 43°46' E 014°32'1019.8
2019-Jul-06 22:30N 43°39' E 014°41'3320.0
2019-Jul-06 20:53N 43°15' E 015°10'  

Dump ship's entire track history